createdAt,value
2018-07-08T00:02:23.651Z,68.30
2018-07-08T00:04:53.002Z,68.50
2018-07-08T00:07:21.839Z,68.30
2018-07-08T00:09:50.948Z,68.10
2018-07-08T00:12:19.960Z,68.00
2018-07-08T00:14:48.997Z,68.80
2018-07-08T00:17:17.881Z,69.20
2018-07-08T00:19:46.812Z,68.80
2018-07-08T00:22:15.892Z,68.60
2018-07-08T00:24:44.621Z,68.80
2018-07-08T00:27:13.582Z,68.80
2018-07-08T00:29:42.506Z,69.50
2018-07-08T00:32:11.576Z,70.10
2018-07-08T00:34:41.008Z,70.30
2018-07-08T00:37:10.082Z,70.70
2018-07-08T00:39:39.178Z,72.20
2018-07-08T00:42:08.395Z,71.40
2018-07-08T00:44:37.368Z,71.70
2018-07-08T00:47:06.537Z,70.80
2018-07-08T00:52:03.594Z,70.50
2018-07-08T00:54:32.581Z,71.00
2018-07-08T00:57:01.547Z,70.60
2018-07-08T00:59:30.328Z,71.10
2018-07-08T01:01:59.629Z,70.90
2018-07-08T01:04:28.451Z,72.30
2018-07-08T01:09:26.546Z,71.60
2018-07-08T01:11:55.378Z,71.80
2018-07-08T01:14:24.381Z,72.90
2018-07-08T01:16:53.163Z,72.10
2018-07-08T01:19:22.076Z,72.60
2018-07-08T01:21:51.268Z,72.10
2018-07-08T01:24:20.158Z,73.00
2018-07-08T01:26:49.134Z,72.30
2018-07-08T01:29:18.378Z,71.80
2018-07-08T01:31:47.235Z,72.70
2018-07-08T01:34:16.686Z,72.40
2018-07-08T01:36:45.621Z,73.50
2018-07-08T01:39:14.567Z,73.50
2018-07-08T01:41:43.423Z,72.50
2018-07-08T01:44:12.454Z,73.20
2018-07-08T01:49:09.918Z,72.30
2018-07-08T01:51:38.762Z,72.50
2018-07-08T01:54:07.587Z,72.90
2018-07-08T01:56:36.656Z,73.20
2018-07-08T01:59:05.452Z,74.10
2018-07-08T02:01:34.435Z,73.30
2018-07-08T02:04:03.582Z,73.50
2018-07-08T02:06:32.578Z,72.90
2018-07-08T02:09:01.673Z,73.20
2018-07-08T02:11:31.066Z,72.90
2018-07-08T02:13:59.898Z,73.70
2018-07-08T02:16:28.811Z,74.20
2018-07-08T02:18:57.788Z,73.30
2018-07-08T02:21:26.814Z,73.60
2018-07-08T02:23:55.897Z,73.30
2018-07-08T02:26:24.874Z,73.20
2018-07-08T02:28:54.159Z,73.10
2018-07-08T02:31:23.184Z,73.20
2018-07-08T02:33:52.081Z,73.20
2018-07-08T02:36:21.026Z,73.20
2018-07-08T02:38:50.052Z,73.00
2018-07-08T02:41:19.067Z,72.90
2018-07-08T02:43:48.049Z,73.00
2018-07-08T02:46:16.985Z,73.00
2018-07-08T02:48:45.932Z,73.50
2018-07-08T02:51:14.939Z,73.20
2018-07-08T02:53:43.922Z,73.90
2018-07-08T02:56:12.573Z,73.80
2018-07-08T02:58:43.644Z,73.70
2018-07-08T03:01:12.443Z,73.10
2018-07-08T03:03:41.349Z,72.90
2018-07-08T03:06:10.269Z,72.70
2018-07-08T03:11:07.693Z,72.80
2018-07-08T03:13:38.743Z,72.20
2018-07-08T03:16:07.751Z,74.10
2018-07-08T03:18:36.840Z,73.30
2018-07-08T03:21:05.897Z,73.90
2018-07-08T03:23:35.051Z,73.70
2018-07-08T03:26:04.050Z,73.90
2018-07-08T03:28:32.807Z,73.80
2018-07-08T03:31:01.735Z,73.70
2018-07-08T03:33:30.674Z,74.10
2018-07-08T03:35:59.574Z,74.20
2018-07-08T03:38:28.483Z,74.60
2018-07-08T03:40:57.284Z,74.50
2018-07-08T03:43:26.140Z,74.80
2018-07-08T03:45:55.136Z,74.20
2018-07-08T03:48:24.352Z,73.90
2018-07-08T03:50:53.230Z,74.10
2018-07-08T03:53:22.319Z,74.30
2018-07-08T03:55:51.441Z,73.70
2018-07-08T03:58:20.550Z,73.10
2018-07-08T04:00:49.506Z,74.50
2018-07-08T04:03:18.363Z,74.50
2018-07-08T04:05:47.156Z,73.40
2018-07-08T04:08:15.905Z,73.70
2018-07-08T04:10:44.558Z,73.00
2018-07-08T04:13:13.479Z,73.20
2018-07-08T04:15:42.451Z,73.20
2018-07-08T04:18:11.420Z,74.40
2018-07-08T04:20:40.681Z,75.00
2018-07-08T04:23:09.809Z,74.90
2018-07-08T04:25:38.546Z,75.20
2018-07-08T04:28:07.412Z,75.60
2018-07-08T04:30:36.456Z,74.20
2018-07-08T04:33:05.405Z,75.20
2018-07-08T04:35:34.598Z,75.20
2018-07-08T04:38:03.447Z,74.50
2018-07-08T04:43:00.344Z,76.80
2018-07-08T04:45:29.257Z,76.50
2018-07-08T04:47:58.014Z,76.30
2018-07-08T04:50:27.068Z,76.60
2018-07-08T04:52:59.744Z,77.70
2018-07-08T04:55:28.760Z,76.90
2018-07-08T04:57:57.503Z,75.60
2018-07-08T05:00:26.475Z,77.10
2018-07-08T05:02:55.219Z,75.60
2018-07-08T05:05:24.311Z,77.80
2018-07-08T05:07:53.463Z,77.00
2018-07-08T05:10:26.153Z,75.20
2018-07-08T05:12:54.946Z,75.60
2018-07-08T05:15:23.919Z,77.50
2018-07-08T05:17:52.769Z,73.90
2018-07-08T05:20:21.543Z,73.80
2018-07-08T05:22:50.646Z,73.40
2018-07-08T05:25:19.535Z,73.40
2018-07-08T05:27:48.388Z,74.80
2018-07-08T05:30:17.537Z,73.80
2018-07-08T05:32:46.473Z,75.20
2018-07-08T05:35:15.522Z,74.00
2018-07-08T05:40:12.833Z,73.40
2018-07-08T05:42:41.889Z,73.10
2018-07-08T05:45:10.877Z,72.90
2018-07-08T05:47:39.618Z,71.70
2018-07-08T05:50:08.781Z,71.80
2018-07-08T05:52:37.512Z,72.10
2018-07-08T05:55:06.538Z,70.00
2018-07-08T05:57:35.507Z,67.20
2018-07-08T06:00:04.690Z,68.10
2018-07-08T06:02:33.692Z,68.40
2018-07-08T06:05:02.593Z,67.50
2018-07-08T06:07:31.570Z,66.30
2018-07-08T06:10:00.472Z,66.40
2018-07-08T06:12:29.547Z,68.70
2018-07-08T06:14:58.495Z,67.30
2018-07-08T06:17:27.480Z,69.50
2018-07-08T06:20:01.673Z,66.10
2018-07-08T06:22:30.494Z,63.70
2018-07-08T06:24:59.175Z,62.10
2018-07-08T06:27:28.235Z,60.30
2018-07-08T06:29:57.255Z,63.20
2018-07-08T06:32:26.201Z,64.20
2018-07-08T06:34:55.115Z,63.90
2018-07-08T06:37:23.991Z,62.70
2018-07-08T06:39:52.796Z,59.80
2018-07-08T06:42:21.829Z,59.20
2018-07-08T06:44:50.881Z,56.10
2018-07-08T06:47:19.650Z,56.40
2018-07-08T06:49:48.656Z,56.50
2018-07-08T06:52:17.597Z,57.80
2018-07-08T06:54:46.488Z,58.40
2018-07-08T06:57:15.214Z,61.10
2018-07-08T06:59:44.161Z,59.50
2018-07-08T07:02:13.019Z,57.50
2018-07-08T07:04:41.954Z,57.90
2018-07-08T07:07:14.537Z,59.10
2018-07-08T07:09:53.142Z,56.60
2018-07-08T07:12:22.038Z,57.10
2018-07-08T07:14:50.867Z,54.40
2018-07-08T07:17:19.688Z,51.40
2018-07-08T07:19:48.561Z,54.30
2018-07-08T07:22:17.671Z,53.20
2018-07-08T07:27:44.779Z,54.00
2018-07-08T07:30:22.021Z,52.40
2018-07-08T07:32:50.959Z,55.80
2018-07-08T07:38:06.045Z,55.80
2018-07-08T07:40:34.989Z,55.80
2018-07-08T07:43:03.973Z,56.50
2018-07-08T07:45:32.865Z,57.20
2018-07-08T07:48:01.660Z,54.80
2018-07-08T07:50:37.247Z,54.50
2018-07-08T07:53:06.200Z,56.30
2018-07-08T07:55:35.476Z,55.00
2018-07-08T07:58:07.972Z,54.20
2018-07-08T08:00:36.876Z,55.30
2018-07-08T08:03:06.165Z,55.40
2018-07-08T08:05:35.112Z,56.70
2018-07-08T08:08:03.889Z,55.20
2018-07-08T08:10:40.688Z,54.90
2018-07-08T08:13:09.828Z,52.80
2018-07-08T08:15:44.065Z,51.60
2018-07-08T08:18:16.631Z,50.90
2018-07-08T08:20:45.971Z,50.70
2018-07-08T08:23:14.850Z,49.50
2018-07-08T08:25:50.000Z,49.70
2018-07-08T08:28:18.929Z,50.30
2018-07-08T08:30:47.994Z,52.30
2018-07-08T08:33:17.127Z,53.20
2018-07-08T08:35:46.076Z,51.80
2018-07-08T08:38:14.979Z,51.10
2018-07-08T08:40:43.819Z,50.20
2018-07-08T08:43:12.694Z,49.50
2018-07-08T08:45:41.496Z,51.60
2018-07-08T08:48:10.523Z,52.00
2018-07-08T08:50:42.977Z,50.50
2018-07-08T08:53:11.946Z,50.80
2018-07-08T08:55:40.834Z,49.10
2018-07-08T08:58:09.644Z,48.90
2018-07-08T09:00:39.052Z,48.10
2018-07-08T09:03:08.024Z,46.90
2018-07-08T09:05:49.861Z,49.10
2018-07-08T09:08:18.719Z,46.10
2018-07-08T09:10:47.691Z,46.30
2018-07-08T09:13:25.785Z,46.20
2018-07-08T09:16:13.153Z,47.30
2018-07-08T09:18:42.018Z,47.70
2018-07-08T09:21:11.072Z,45.90
2018-07-08T09:23:40.068Z,45.40
2018-07-08T09:26:09.221Z,45.70
2018-07-08T09:28:38.006Z,45.10
2018-07-08T09:31:07.474Z,44.60
2018-07-08T09:33:37.254Z,44.90
2018-07-08T09:36:06.752Z,46.70
2018-07-08T09:38:35.589Z,47.30
2018-07-08T09:41:09.006Z,48.70
2018-07-08T09:43:38.050Z,49.80
2018-07-08T09:46:06.895Z,49.20
2018-07-08T09:48:35.687Z,44.80
2018-07-08T09:51:04.689Z,44.50
2018-07-08T09:53:40.437Z,46.00
2018-07-08T09:56:09.417Z,45.00
2018-07-08T09:58:38.206Z,47.00
2018-07-08T10:01:07.109Z,46.50
2018-07-08T10:03:37.017Z,42.30
2018-07-08T10:06:06.230Z,41.20
2018-07-08T10:08:35.671Z,44.60
2018-07-08T10:11:18.184Z,44.90
2018-07-08T10:16:15.750Z,45.60
2018-07-08T10:18:44.662Z,46.20
2018-07-08T10:21:13.595Z,44.50
2018-07-08T10:23:42.643Z,42.60
2018-07-08T10:26:11.381Z,43.10
2018-07-08T10:28:40.701Z,46.10
2018-07-08T10:31:14.295Z,46.10
2018-07-08T10:33:53.713Z,45.60
2018-07-08T10:36:22.723Z,43.30
2018-07-08T10:38:51.541Z,42.80
2018-07-08T10:41:26.431Z,42.80
2018-07-08T10:43:55.644Z,42.70
2018-07-08T10:46:24.552Z,43.30
2018-07-08T10:48:53.520Z,43.50
2018-07-08T10:51:22.413Z,42.20
2018-07-08T10:53:51.289Z,42.70
2018-07-08T10:56:21.427Z,43.30
2018-07-08T10:58:50.440Z,42.30
2018-07-08T11:01:19.768Z,44.70
2018-07-08T11:06:16.730Z,44.20
2018-07-08T11:08:47.839Z,43.60
2018-07-08T11:11:20.217Z,42.90
2018-07-08T11:13:49.616Z,44.40
2018-07-08T11:16:18.477Z,43.70
2018-07-08T11:18:47.398Z,43.60
2018-07-08T11:21:17.218Z,43.30
2018-07-08T11:23:46.268Z,44.50
2018-07-08T11:26:15.484Z,44.70
2018-07-08T11:28:44.493Z,42.80
2018-07-08T11:31:13.477Z,43.00
2018-07-08T11:33:42.266Z,43.00
2018-07-08T11:36:11.383Z,42.20
2018-07-08T11:38:40.252Z,41.10
2018-07-08T11:43:37.506Z,42.50
2018-07-08T11:46:06.663Z,42.80
2018-07-08T11:48:35.644Z,43.30
2018-07-08T11:51:04.829Z,43.20
2018-07-08T11:53:33.902Z,42.40
2018-07-08T11:56:02.580Z,41.40
2018-07-08T11:58:31.536Z,42.00
2018-07-08T12:01:03.552Z,41.90
2018-07-08T12:03:32.505Z,42.10
2018-07-08T12:06:01.482Z,43.00
2018-07-08T12:08:30.287Z,42.80
2018-07-08T12:10:59.368Z,42.30
2018-07-08T12:15:56.397Z,43.10
2018-07-08T12:18:25.434Z,42.50
2018-07-08T12:23:23.312Z,43.10
2018-07-08T12:25:52.146Z,40.90
2018-07-08T12:28:21.663Z,41.30
2018-07-08T12:30:50.611Z,41.80
2018-07-08T12:33:19.345Z,41.90
2018-07-08T12:35:47.944Z,41.60
2018-07-08T12:38:16.707Z,41.30
2018-07-08T12:40:45.645Z,41.00
2018-07-08T12:43:14.617Z,40.90
2018-07-08T12:45:43.689Z,42.00
2018-07-08T12:48:12.929Z,42.70
2018-07-08T12:50:41.766Z,42.40
2018-07-08T12:53:10.561Z,42.30
2018-07-08T12:55:39.603Z,42.30
2018-07-08T12:58:12.951Z,42.30
2018-07-08T13:00:41.901Z,41.60
2018-07-08T13:03:10.946Z,41.30
2018-07-08T13:05:39.737Z,41.60
2018-07-08T13:08:09.731Z,42.60
2018-07-08T13:10:38.688Z,42.00
2018-07-08T13:13:07.637Z,41.70
2018-07-08T13:15:36.557Z,42.80
2018-07-08T13:18:05.459Z,42.70
2018-07-08T13:20:34.275Z,42.00
2018-07-08T13:23:03.096Z,41.80
2018-07-08T13:25:32.131Z,41.30
2018-07-08T13:28:01.180Z,42.40
2018-07-08T13:30:30.088Z,41.70
2018-07-08T13:32:59.319Z,41.80
2018-07-08T13:35:28.012Z,41.40
2018-07-08T13:37:56.861Z,41.10
2018-07-08T13:40:25.694Z,40.60
2018-07-08T13:42:54.675Z,41.60
2018-07-08T13:45:23.640Z,41.80
2018-07-08T13:47:52.527Z,40.70
2018-07-08T13:50:21.429Z,42.30
2018-07-08T13:52:50.354Z,41.30
2018-07-08T13:55:19.214Z,41.70
2018-07-08T13:57:47.994Z,41.40
2018-07-08T14:00:16.999Z,41.50
2018-07-08T14:02:45.865Z,41.00
2018-07-08T14:05:14.900Z,40.60
2018-07-08T14:07:44.132Z,40.70
2018-07-08T14:10:13.372Z,41.10
2018-07-08T14:12:42.141Z,40.40
2018-07-08T14:15:11.138Z,40.50
2018-07-08T14:17:40.272Z,39.90
2018-07-08T14:20:09.409Z,40.00
2018-07-08T14:22:38.349Z,41.50
2018-07-08T14:25:07.446Z,40.70
2018-07-08T14:27:36.415Z,40.80
2018-07-08T14:30:05.512Z,40.10
2018-07-08T14:32:34.568Z,38.90
2018-07-08T14:37:32.798Z,40.70
2018-07-08T14:40:01.923Z,40.00
2018-07-08T14:42:45.094Z,40.00
2018-07-08T14:45:15.151Z,40.20
2018-07-08T14:47:47.947Z,39.70
2018-07-08T14:50:16.974Z,39.80
2018-07-08T14:52:45.981Z,39.80
2018-07-08T14:55:14.969Z,39.80
2018-07-08T14:57:43.962Z,40.00
2018-07-08T15:00:12.995Z,40.40
2018-07-08T15:02:57.912Z,40.40
2018-07-08T15:05:27.114Z,39.70
2018-07-08T15:07:56.335Z,39.90
2018-07-08T15:10:25.503Z,39.90
2018-07-08T15:12:55.017Z,40.10
2018-07-08T15:15:23.998Z,40.20
2018-07-08T15:20:21.396Z,39.70
2018-07-08T15:22:50.460Z,40.20
2018-07-08T15:25:19.501Z,39.40
2018-07-08T15:27:48.480Z,39.80
2018-07-08T15:30:17.573Z,39.90
2018-07-08T15:32:47.052Z,40.00
2018-07-08T15:35:16.051Z,39.10
2018-07-08T15:37:45.044Z,39.90
2018-07-08T15:42:43.853Z,39.50
2018-07-08T15:45:12.953Z,39.60
2018-07-08T15:50:10.435Z,39.90
2018-07-08T15:52:39.525Z,39.90
2018-07-08T15:55:08.550Z,39.90
2018-07-08T15:57:38.123Z,39.80
2018-07-08T16:00:07.345Z,40.10
2018-07-08T16:02:36.776Z,40.40
2018-07-08T16:05:05.786Z,40.30
2018-07-08T16:07:35.234Z,39.60
2018-07-08T16:10:11.195Z,39.90
2018-07-08T16:15:08.555Z,40.40
2018-07-08T16:17:37.590Z,40.80
2018-07-08T16:20:06.868Z,40.90
2018-07-08T16:22:36.064Z,40.00
2018-07-08T16:25:05.096Z,40.00
2018-07-08T16:27:34.213Z,40.30
2018-07-08T16:30:03.446Z,40.40
2018-07-08T16:32:36.949Z,40.80
2018-07-08T16:35:07.045Z,40.20
2018-07-08T16:37:36.004Z,40.70
2018-07-08T16:40:05.061Z,40.70
2018-07-08T16:42:41.078Z,41.10
2018-07-08T16:45:10.047Z,40.70
2018-07-08T16:48:00.464Z,41.00
2018-07-08T16:50:29.375Z,40.00
2018-07-08T16:55:26.509Z,41.10
2018-07-08T16:57:55.520Z,40.90
2018-07-08T17:00:24.352Z,41.20
2018-07-08T17:02:53.294Z,41.80
2018-07-08T17:05:22.481Z,41.40
2018-07-08T17:07:51.622Z,41.70
2018-07-08T17:10:20.720Z,41.90
2018-07-08T17:12:50.012Z,42.10
2018-07-08T17:15:19.295Z,42.80
2018-07-08T17:17:48.279Z,42.60
2018-07-08T17:20:17.322Z,43.20
2018-07-08T17:22:46.513Z,42.70
2018-07-08T17:25:15.599Z,42.60
2018-07-08T17:27:44.724Z,43.30
2018-07-08T17:30:14.011Z,43.30
2018-07-08T17:32:42.963Z,42.80
2018-07-08T17:35:11.848Z,43.60
2018-07-08T17:37:41.449Z,43.00
2018-07-08T17:40:10.326Z,43.20
2018-07-08T17:42:39.243Z,43.70
2018-07-08T17:45:08.127Z,43.70
2018-07-08T17:47:43.077Z,44.10
2018-07-08T17:50:12.042Z,43.60
2018-07-08T17:52:41.026Z,44.50
2018-07-08T17:55:13.863Z,43.90
2018-07-08T18:00:17.073Z,44.90
2018-07-08T18:05:14.630Z,44.70
2018-07-08T18:07:47.616Z,45.40
2018-07-08T18:10:22.979Z,44.80
2018-07-08T18:12:51.827Z,44.50
2018-07-08T18:15:25.115Z,45.30
2018-07-08T18:17:54.498Z,45.60
2018-07-08T18:20:23.425Z,45.80
2018-07-08T18:23:00.237Z,45.60
2018-07-08T18:25:29.227Z,45.60
2018-07-08T18:27:58.085Z,46.10
2018-07-08T18:30:32.342Z,46.30
2018-07-08T18:33:01.284Z,46.30
2018-07-08T18:35:30.724Z,46.20
2018-07-08T18:37:59.556Z,46.30
2018-07-08T18:40:28.474Z,46.40
2018-07-08T18:42:57.615Z,46.20
2018-07-08T18:45:26.477Z,46.80
2018-07-08T18:47:55.473Z,47.20
2018-07-08T18:50:24.253Z,47.40
2018-07-08T18:52:53.266Z,47.20
2018-07-08T18:55:25.535Z,48.20
2018-07-08T18:57:54.467Z,48.30
2018-07-08T19:00:23.518Z,48.60
2018-07-08T19:02:52.754Z,48.70
2018-07-08T19:05:21.879Z,48.80
2018-07-08T19:07:50.832Z,48.50
2018-07-08T19:10:19.840Z,48.80
2018-07-08T19:12:50.937Z,48.70
2018-07-08T19:15:20.015Z,49.30
2018-07-08T19:17:49.054Z,49.60
2018-07-08T19:20:18.141Z,50.20
2018-07-08T19:22:47.147Z,50.20
2018-07-08T19:25:16.031Z,50.20
2018-07-08T19:27:45.303Z,50.60
2018-07-08T19:30:14.341Z,51.30
2018-07-08T19:32:43.221Z,51.40
2018-07-08T19:37:40.792Z,52.00
2018-07-08T19:40:10.239Z,51.70
2018-07-08T19:42:39.221Z,51.60
2018-07-08T19:45:08.037Z,52.60
2018-07-08T19:47:37.012Z,52.30
2018-07-08T19:50:06.037Z,52.10
2018-07-08T19:52:35.551Z,52.40
2018-07-08T19:55:04.732Z,52.90
2018-07-08T19:57:33.714Z,53.00
2018-07-08T20:00:02.700Z,53.60
2018-07-08T20:02:33.732Z,53.40
2018-07-08T20:05:02.606Z,54.10
2018-07-08T20:07:32.100Z,53.70
2018-07-08T20:10:01.200Z,54.10
2018-07-08T20:12:30.475Z,54.30
2018-07-08T20:14:59.765Z,54.90
2018-07-08T20:17:37.051Z,54.90
2018-07-08T20:20:09.293Z,54.90
2018-07-08T20:22:38.683Z,55.20
2018-07-08T20:25:08.071Z,55.00
2018-07-08T20:27:37.165Z,55.00
2018-07-08T20:30:06.810Z,55.00
2018-07-08T20:32:35.924Z,55.80
2018-07-08T20:35:05.073Z,55.70
2018-07-08T20:37:34.128Z,55.80
2018-07-08T20:40:03.119Z,56.00
2018-07-08T20:42:32.185Z,56.10
2018-07-08T20:45:01.195Z,56.20
2018-07-08T20:47:30.064Z,56.60
2018-07-08T20:49:58.869Z,56.60
2018-07-08T20:52:27.893Z,57.20
2018-07-08T20:54:56.707Z,57.30
2018-07-08T20:57:29.384Z,57.50
2018-07-08T20:59:58.364Z,57.60
2018-07-08T21:02:32.100Z,57.90
2018-07-08T21:05:00.962Z,58.70
2018-07-08T21:07:30.067Z,58.30
2018-07-08T21:09:59.163Z,59.30
2018-07-08T21:12:28.004Z,59.10
2018-07-08T21:14:57.133Z,60.00
2018-07-08T21:17:25.986Z,60.00
2018-07-08T21:19:54.963Z,60.10
2018-07-08T21:22:35.600Z,60.90
2018-07-08T21:25:04.765Z,60.40
2018-07-08T21:27:33.637Z,60.40
2018-07-08T21:30:02.635Z,61.00
2018-07-08T21:32:31.435Z,60.40
2018-07-08T21:35:01.337Z,60.40
2018-07-08T21:37:30.385Z,60.30
2018-07-08T21:44:58.123Z,60.40
2018-07-08T21:47:27.046Z,59.90
2018-07-08T21:49:56.109Z,60.00
2018-07-08T21:52:25.262Z,60.50
2018-07-08T21:54:54.352Z,60.80
2018-07-08T21:57:23.251Z,60.80
2018-07-08T21:59:52.312Z,60.80
2018-07-08T22:02:22.256Z,60.80
2018-07-08T22:04:51.321Z,61.30
2018-07-08T22:07:22.903Z,61.50
2018-07-08T22:09:53.260Z,61.40
2018-07-08T22:12:22.127Z,61.20
2018-07-08T22:14:51.062Z,61.50
2018-07-08T22:17:30.347Z,62.50
2018-07-08T22:22:27.984Z,62.50
2018-07-08T22:24:57.131Z,62.50
2018-07-08T22:27:26.174Z,61.60
2018-07-08T22:29:55.067Z,62.00
2018-07-08T22:32:30.335Z,62.10
2018-07-08T22:34:59.468Z,61.90
2018-07-08T22:37:28.722Z,62.90
2018-07-08T22:39:57.752Z,62.80
2018-07-08T22:42:26.850Z,62.50
2018-07-08T22:47:26.537Z,61.90
2018-07-08T22:49:55.621Z,62.60
2018-07-08T22:52:24.757Z,62.40
2018-07-08T22:54:53.878Z,62.50
2018-07-08T22:57:23.025Z,62.40
2018-07-08T23:00:02.974Z,62.60
2018-07-08T23:02:39.174Z,62.60
2018-07-08T23:05:08.032Z,62.80
2018-07-08T23:07:37.432Z,62.60
2018-07-08T23:10:06.730Z,62.60
2018-07-08T23:12:35.605Z,62.60
2018-07-08T23:15:04.514Z,63.00
2018-07-08T23:17:33.605Z,62.90
2018-07-08T23:20:06.291Z,63.30
2018-07-08T23:22:45.943Z,63.20
2018-07-08T23:25:15.086Z,63.20
2018-07-08T23:27:44.045Z,63.20
2018-07-08T23:30:12.952Z,63.40
2018-07-08T23:32:42.318Z,63.40
2018-07-08T23:35:11.090Z,63.50
2018-07-08T23:37:39.862Z,63.50
2018-07-08T23:40:08.923Z,63.50
2018-07-08T23:45:06.053Z,63.50
2018-07-08T23:47:35.073Z,63.70
2018-07-08T23:50:04.618Z,63.60
2018-07-08T23:52:33.892Z,63.50
2018-07-08T23:57:31.406Z,63.90
